Maria — SV7156 — position and weather

sailwx.info

Track history (hours):
 
Tides and Currents Weather Stations Pressure Air Temp Water Temp Dewpoint Dewpoint Depression Visibility Wind Speed Wind Dir Waves Ship Positions

Maria

Last reported at 2017-Jun-25 18:45 UTC. Time now 2017-Jun-27 22:36 UTC.
Position N 37°58' E 023°35'.

Length 74 m; draft 4.5 m.

Type: Ship. MMSI: 237493000.

Date/timePositionNaut miles runAvg speedWind from/ knotsBaromVisibWave heightAir tempDewpointWater temp
2017-Jun-25 18:45N 37°58' E 023°35'1 3.1
2017-Jun-25 18:30N 37°57' E 023°35'1 1.1
2017-Jun-25 18:00N 37°57' E 023°36'0 0.0
2017-Jun-25 17:30N 37°57' E 023°36'0 0.0
2017-Jun-25 17:00N 37°57' E 023°36'0 0.0
2017-Jun-25 16:30N 37°57' E 023°36'0 0.0
2017-Jun-25 16:00N 37°57' E 023°36'0 0.0
2017-Jun-25 15:30N 37°57' E 023°36'0 0.0
2017-Jun-25 15:00N 37°57' E 023°36'0 0.0
2017-Jun-25 14:30N 37°57' E 023°36'1 1.0
2017-Jun-25 13:30N 37°57' E 023°35'4 7.5
2017-Jun-25 13:00N 37°53' E 023°33'0 0.2
2017-Jun-25 12:30N 37°53' E 023°33'0 0.0
2017-Jun-25 12:00N 37°53' E 023°33'0 0.1
2017-Jun-25 11:30N 37°53' E 023°33'3 6.3
2017-Jun-25 11:00N 37°50' E 023°31'0 0.8
2017-Jun-25 10:30N 37°50' E 023°31'0 0.0
2017-Jun-25 10:00N 37°50' E 023°31'0 0.0
2017-Jun-25 09:30N 37°50' E 023°31'0 0.1
2017-Jun-25 09:00N 37°50' E 023°31'0 0.0
2017-Jun-25 08:30N 37°50' E 023°31'0 0.0
2017-Jun-25 08:00N 37°50' E 023°31'0 0.0
2017-Jun-25 07:30N 37°50' E 023°31'0 0.0
2017-Jun-25 07:00N 37°50' E 023°31'0 0.0
2017-Jun-25 06:30N 37°50' E 023°31'0 0.1
2017-Jun-25 06:00N 37°50' E 023°31'0 0.1
2017-Jun-25 05:30N 37°50' E 023°31'0 0.1
2017-Jun-25 05:00N 37°50' E 023°31'1 2.7
2017-Jun-25 04:30N 37°51' E 023°32'4 7.6
2017-Jun-25 04:00N 37°55' E 023°34'3 6.1
2017-Jun-25 03:30N 37°58' E 023°35'0 0.0
2017-Jun-24 08:43N 37°58' E 023°35'0 0.0
2017-Jun-24 08:30N 37°58' E 023°35'0 0.0
2017-Jun-24 08:00N 37°58' E 023°35'2 3.5
2017-Jun-24 07:30N 37°58' E 023°33'3 6.8
2017-Jun-24 07:00N 38°01' E 023°35'1 1.6
2017-Jun-24 06:30N 38°02' E 023°36'0 0.0
2017-Jun-24 06:00N 38°02' E 023°36'0 0.0
2017-Jun-24 05:30N 38°02' E 023°36'0 0.0
2017-Jun-24 05:00N 38°02' E 023°36'0 0.0
2017-Jun-24 04:30N 38°02' E 023°36'0 0.0
2017-Jun-24 04:00N 38°02' E 023°36'0 0.0
2017-Jun-24 03:31N 38°02' E 023°36'0 0.0
2017-Jun-24 03:00N 38°02' E 023°36'0 0.0
2017-Jun-24 02:30N 38°02' E 023°36'0 0.0
2017-Jun-24 02:00N 38°02' E 023°36'0 0.0
2017-Jun-24 01:30N 38°02' E 023°36'0 0.0
2017-Jun-24 01:00N 38°02' E 023°36'0 0.0
2017-Jun-24 00:30N 38°02' E 023°36'0 0.0
2017-Jun-24 00:01N 38°02' E 023°36'1 1.1
2017-Jun-23 23:30N 38°02' E 023°35'0 0.0
2017-Jun-23 23:00N 38°02' E 023°35'0 0.0
2017-Jun-23 22:30N 38°02' E 023°35'0 0.0
2017-Jun-23 22:00N 38°02' E 023°35'0 0.0
2017-Jun-23 21:30N 38°02' E 023°35'0 0.0
2017-Jun-23 21:00N 38°02' E 023°35'0 0.0
2017-Jun-23 20:30N 38°02' E 023°35'0 0.0
2017-Jun-23 20:00N 38°02' E 023°35'0 0.0
2017-Jun-23 19:30N 38°02' E 023°35'0 0.0
2017-Jun-23 19:00N 38°02' E 023°35'0 0.0
2017-Jun-23 18:30N 38°02' E 023°35'0 0.0
2017-Jun-23 18:00N 38°02' E 023°35'4 7.3
2017-Jun-23 17:30N 37°59' E 023°33'2 3.3
2017-Jun-23 17:00N 37°58' E 023°35'0 0.0
2017-Jun-22 10:29N 37°58' E 023°35'0 0.1
2017-Jun-22 10:00N 37°58' E 023°35'0 0.0
2017-Jun-22 09:30N 37°58' E 023°35'0 0.0
2017-Jun-22 09:00N 37°58' E 023°35'0 0.0
2017-Jun-22 08:30N 37°58' E 023°35'0 0.0
2017-Jun-22 08:00N 37°58' E 023°35'0 0.1
2017-Jun-22 07:30N 37°58' E 023°35'3 6.8
2017-Jun-22 07:00N 37°54' E 023°34'4 7.5
2017-Jun-22 06:30N 37°51' E 023°31'1 1.5
2017-Jun-22 06:00N 37°50' E 023°31'0 0.1
2017-Jun-22 05:30N 37°50' E 023°31'0 0.0
2017-Jun-22 05:00N 37°50' E 023°31'0 0.0
2017-Jun-22 04:30N 37°50' E 023°31'0 0.0
2017-Jun-22 04:00N 37°50' E 023°31'0 0.0
2017-Jun-22 03:30N 37°50' E 023°31'0 0.0
2017-Jun-22 03:00N 37°50' E 023°31'0 0.1
2017-Jun-22 02:30N 37°50' E 023°31'0 0.0
2017-Jun-22 02:00N 37°50' E 023°31'0 0.0
2017-Jun-22 01:30N 37°50' E 023°31'0 0.0
2017-Jun-22 01:00N 37°50' E 023°31'0 0.0
2017-Jun-22 00:30N 37°50' E 023°31'0 0.0
2017-Jun-22 00:00N 37°50' E 023°31'0 0.0
2017-Jun-21 23:30N 37°50' E 023°31'0 0.0
2017-Jun-21 23:00N 37°50' E 023°31'0 0.0
2017-Jun-21 22:30N 37°50' E 023°31'1 2.0
2017-Jun-21 22:00N 37°50' E 023°30'4 7.7
2017-Jun-21 21:31N 37°51' E 023°25'4 7.3
2017-Jun-21 21:00N 37°51' E 023°20'4 7.4
2017-Jun-21 20:30N 37°52' E 023°16'4 7.4
2017-Jun-21 19:59N 37°53' E 023°11'1 0.1
2017-Jun-21 07:33N 37°54' E 023°12'0 7.1
2017-Jun-21 07:30N 37°54' E 023°12'3 7.1
2017-Jun-21 07:00N 37°53' E 023°16'4 7.3
2017-Jun-21 06:30N 37°53' E 023°21'4 7.4
2017-Jun-21 06:00N 37°52' E 023°26'4 7.1
2017-Jun-21 05:30N 37°53' E 023°30'4 8.1
2017-Jun-21 05:00N 37°56' E 023°34'2 3.9
2017-Jun-21 04:30N 37°58' E 023°35'0 0.0
2017-Jun-21 04:00N 37°58' E 023°35'0 0.0
2017-Jun-20 07:32N 37°58' E 023°35'0 0.3
2017-Jun-20 07:30N 37°58' E 023°35'0 0.1
2017-Jun-20 07:00N 37°58' E 023°35'0 0.0
2017-Jun-20 06:30N 37°58' E 023°35'0 0.0
2017-Jun-20 06:00N 37°58' E 023°35'3 5.4
2017-Jun-20 05:30N 37°55' E 023°34'4 7.3
2017-Jun-20 05:00N 37°52' E 023°31'1 2.9
2017-Jun-20 04:30N 37°51' E 023°30'0 0.0
2017-Jun-20 03:57N 37°51' E 023°30'0 0.0
2017-Jun-20 03:24N 37°51' E 023°30'0 0.1
2017-Jun-20 03:00N 37°51' E 023°30'0 0.0
2017-Jun-20 02:30N 37°51' E 023°30'0 0.0
2017-Jun-20 02:00N 37°51' E 023°30'0 0.0
2017-Jun-20 01:30N 37°51' E 023°30'0 0.0
2017-Jun-20 01:00N 37°51' E 023°30'0 0.0
2017-Jun-20 00:30N 37°51' E 023°30'0 0.0
2017-Jun-20 00:00N 37°51' E 023°30'0 0.0
2017-Jun-19 23:30N 37°51' E 023°30'0 0.0
2017-Jun-19 23:00N 37°51' E 023°30'0 0.0
2017-Jun-19 22:30N 37°51' E 023°30'0 0.1
2017-Jun-19 21:57N 37°51' E 023°30'0 0.1
2017-Jun-19 21:30N 37°51' E 023°30'2 3.6
2017-Jun-19 20:59N 37°51' E 023°28'3 7.2
2017-Jun-19 20:30N 37°51' E 023°23'4 7.4
2017-Jun-19 20:00N 37°52' E 023°19'5 7.4
2017-Jun-19 19:23N 37°53' E 023°13'2 0.2
2017-Jun-19 10:59N 37°54' E 023°11'4 7.5
2017-Jun-19 10:30N 37°53' E 023°16'4 7.6
2017-Jun-19 10:00N 37°53' E 023°21'4 7.5
2017-Jun-19 09:30N 37°52' E 023°25'4 7.2
2017-Jun-19 09:00N 37°53' E 023°30'4 8.0
2017-Jun-19 08:30N 37°56' E 023°33'2 4.4
2017-Jun-19 08:00N 37°58' E 023°35'0 0.0
2017-Jun-18 23:54N 37°58' E 023°35'0 1.1
2017-Jun-18 23:30N 37°57' E 023°35'0 0.0
2017-Jun-18 23:00N 37°57' E 023°35'0 0.0
2017-Jun-18 22:30N 37°57' E 023°35'0 0.0
2017-Jun-18 22:00N 37°57' E 023°35'0 0.0
2017-Jun-18 21:30N 37°57' E 023°35'0 0.0
2017-Jun-18 21:00N 37°57' E 023°35'0 0.0
2017-Jun-18 20:30N 37°57' E 023°35'0 0.0
2017-Jun-18 20:00N 37°57' E 023°35'0 0.0
2017-Jun-18 19:30N 37°57' E 023°35'0 0.0
2017-Jun-18 19:00N 37°57' E 023°35'0 0.1
2017-Jun-18 18:30N 37°57' E 023°35'3 6.4
2017-Jun-18 18:00N 37°55' E 023°33'3 5.1
2017-Jun-18 17:30N 37°53' E 023°31'0 0.1
2017-Jun-18 17:00N 37°53' E 023°31'0 0.1
2017-Jun-18 16:30N 37°53' E 023°31'0 0.1
2017-Jun-18 16:00N 37°53' E 023°31'0 0.1
2017-Jun-18 15:30N 37°53' E 023°31'0 0.0
2017-Jun-18 15:00N 37°53' E 023°31'0 0.1
2017-Jun-18 14:00N 37°53' E 023°31'0 0.1
2017-Jun-18 13:30N 37°53' E 023°31'0 0.0
2017-Jun-18 13:00N 37°53' E 023°31'0 0.0
2017-Jun-18 12:30N 37°53' E 023°31'0 0.1
2017-Jun-18 12:01N 37°53' E 023°31'0 0.0
2017-Jun-18 11:30N 37°53' E 023°31'0 0.0
2017-Jun-18 11:00N 37°53' E 023°31'1 1.6
2017-Jun-18 10:30N 37°52' E 023°32'2 4.8
2017-Jun-18 10:00N 37°54' E 023°33'3 5.6
2017-Jun-18 09:30N 37°56' E 023°35'2 3.2
2017-Jun-18 09:00N 37°57' E 023°33'1 0.0
2017-Jun-17 06:12N 37°58' E 023°35'0 0.0
2017-Jun-17 06:01N 37°58' E 023°35'0 0.0
2017-Jun-17 05:31N 37°58' E 023°35'0 0.0
2017-Jun-17 05:01N 37°58' E 023°35'0 0.3
2017-Jun-17 04:30N 37°57' E 023°35'3 5.0
2017-Jun-17 04:00N 37°60' E 023°33'2 4.2
2017-Jun-17 03:31N 38°01' E 023°35'1 1.7
2017-Jun-17 03:00N 38°02' E 023°36'0 0.0
2017-Jun-17 02:30N 38°02' E 023°36'0 0.0
2017-Jun-17 02:00N 38°02' E 023°36'0 0.0
2017-Jun-17 01:30N 38°02' E 023°36'0 0.0
2017-Jun-17 01:00N 38°02' E 023°36'0 0.0
2017-Jun-17 00:30N 38°02' E 023°36'0 0.0
2017-Jun-17 00:00N 38°02' E 023°36'0 0.0
2017-Jun-16 23:30N 38°02' E 023°36'0 0.0
2017-Jun-16 23:00N 38°02' E 023°36'0 0.0
2017-Jun-16 22:30N 38°02' E 023°36'0 0.0
2017-Jun-16 22:00N 38°02' E 023°36'0 0.0
2017-Jun-16 21:30N 38°02' E 023°36'1 1.4
2017-Jun-16 21:00N 38°02' E 023°35'0 0.2
2017-Jun-16 20:28N 38°02' E 023°35'0 0.0
2017-Jun-16 20:00N 38°02' E 023°35'0 0.0
2017-Jun-16 19:31N 38°02' E 023°35'0 0.0
2017-Jun-16 19:00N 38°02' E 023°35'0 0.0
2017-Jun-16 18:30N 38°02' E 023°35'0 0.0
2017-Jun-16 18:01N 38°02' E 023°35'0 0.0
2017-Jun-16 17:30N 38°02' E 023°35'0 0.0
2017-Jun-16 17:01N 38°02' E 023°35'1 2.8
2017-Jun-16 16:30N 38°01' E 023°34'3 6.7
2017-Jun-16 16:00N 37°57' E 023°34'  
Track history (hours):
 
Tides and Currents Weather Stations Pressure Air Temp Water Temp Dewpoint Dewpoint Depression Visibility Wind Speed Wind Dir Waves Ship Positions

Maria

Last reported at 2017-Jun-25 18:45 UTC. Time now 2017-Jun-27 22:36 UTC.
Position N 37°58' E 023°35'.

Length 74 m; draft 4.5 m.

Type: Ship. MMSI: 237493000.

Date/timePositionNaut miles runAvg speedWind from/ knotsBaromVisibWave heightAir tempDewpointWater temp
2017-Jun-25 18:45N 37°58' E 023°35'1 3.1
2017-Jun-25 18:30N 37°57' E 023°35'1 1.1
2017-Jun-25 18:00N 37°57' E 023°36'0 0.0
2017-Jun-25 17:30N 37°57' E 023°36'0 0.0
2017-Jun-25 17:00N 37°57' E 023°36'0 0.0
2017-Jun-25 16:30N 37°57' E 023°36'0 0.0
2017-Jun-25 16:00N 37°57' E 023°36'0 0.0
2017-Jun-25 15:30N 37°57' E 023°36'0 0.0
2017-Jun-25 15:00N 37°57' E 023°36'0 0.0
2017-Jun-25 14:30N 37°57' E 023°36'1 1.0
2017-Jun-25 13:30N 37°57' E 023°35'4 7.5
2017-Jun-25 13:00N 37°53' E 023°33'0 0.2
2017-Jun-25 12:30N 37°53' E 023°33'0 0.0
2017-Jun-25 12:00N 37°53' E 023°33'0 0.1
2017-Jun-25 11:30N 37°53' E 023°33'3 6.3
2017-Jun-25 11:00N 37°50' E 023°31'0 0.8
2017-Jun-25 10:30N 37°50' E 023°31'0 0.0
2017-Jun-25 10:00N 37°50' E 023°31'0 0.0
2017-Jun-25 09:30N 37°50' E 023°31'0 0.1
2017-Jun-25 09:00N 37°50' E 023°31'0 0.0
2017-Jun-25 08:30N 37°50' E 023°31'0 0.0
2017-Jun-25 08:00N 37°50' E 023°31'0 0.0
2017-Jun-25 07:30N 37°50' E 023°31'0 0.0
2017-Jun-25 07:00N 37°50' E 023°31'0 0.0
2017-Jun-25 06:30N 37°50' E 023°31'0 0.1
2017-Jun-25 06:00N 37°50' E 023°31'0 0.1
2017-Jun-25 05:30N 37°50' E 023°31'0 0.1
2017-Jun-25 05:00N 37°50' E 023°31'1 2.7
2017-Jun-25 04:30N 37°51' E 023°32'4 7.6
2017-Jun-25 04:00N 37°55' E 023°34'3 6.1
2017-Jun-25 03:30N 37°58' E 023°35'0 0.0
2017-Jun-24 08:43N 37°58' E 023°35'0 0.0
2017-Jun-24 08:30N 37°58' E 023°35'0 0.0
2017-Jun-24 08:00N 37°58' E 023°35'2 3.5
2017-Jun-24 07:30N 37°58' E 023°33'3 6.8
2017-Jun-24 07:00N 38°01' E 023°35'1 1.6
2017-Jun-24 06:30N 38°02' E 023°36'0 0.0
2017-Jun-24 06:00N 38°02' E 023°36'0 0.0
2017-Jun-24 05:30N 38°02' E 023°36'0 0.0
2017-Jun-24 05:00N 38°02' E 023°36'0 0.0
2017-Jun-24 04:30N 38°02' E 023°36'0 0.0
2017-Jun-24 04:00N 38°02' E 023°36'0 0.0
2017-Jun-24 03:31N 38°02' E 023°36'0 0.0
2017-Jun-24 03:00N 38°02' E 023°36'0 0.0
2017-Jun-24 02:30N 38°02' E 023°36'0 0.0
2017-Jun-24 02:00N 38°02' E 023°36'0 0.0
2017-Jun-24 01:30N 38°02' E 023°36'0 0.0
2017-Jun-24 01:00N 38°02' E 023°36'0 0.0
2017-Jun-24 00:30N 38°02' E 023°36'0 0.0
2017-Jun-24 00:01N 38°02' E 023°36'1 1.1
2017-Jun-23 23:30N 38°02' E 023°35'0 0.0
2017-Jun-23 23:00N 38°02' E 023°35'0 0.0
2017-Jun-23 22:30N 38°02' E 023°35'0 0.0
2017-Jun-23 22:00N 38°02' E 023°35'0 0.0
2017-Jun-23 21:30N 38°02' E 023°35'0 0.0
2017-Jun-23 21:00N 38°02' E 023°35'0 0.0
2017-Jun-23 20:30N 38°02' E 023°35'0 0.0
2017-Jun-23 20:00N 38°02' E 023°35'0 0.0
2017-Jun-23 19:30N 38°02' E 023°35'0 0.0
2017-Jun-23 19:00N 38°02' E 023°35'0 0.0
2017-Jun-23 18:30N 38°02' E 023°35'0 0.0
2017-Jun-23 18:00N 38°02' E 023°35'4 7.3
2017-Jun-23 17:30N 37°59' E 023°33'2 3.3
2017-Jun-23 17:00N 37°58' E 023°35'0 0.0
2017-Jun-22 10:29N 37°58' E 023°35'0 0.1
2017-Jun-22 10:00N 37°58' E 023°35'0 0.0
2017-Jun-22 09:30N 37°58' E 023°35'0 0.0
2017-Jun-22 09:00N 37°58' E 023°35'0 0.0
2017-Jun-22 08:30N 37°58' E 023°35'0 0.0
2017-Jun-22 08:00N 37°58' E 023°35'0 0.1
2017-Jun-22 07:30N 37°58' E 023°35'3 6.8
2017-Jun-22 07:00N 37°54' E 023°34'4 7.5
2017-Jun-22 06:30N 37°51' E 023°31'1 1.5
2017-Jun-22 06:00N 37°50' E 023°31'0 0.1
2017-Jun-22 05:30N 37°50' E 023°31'0 0.0
2017-Jun-22 05:00N 37°50' E 023°31'0 0.0
2017-Jun-22 04:30N 37°50' E 023°31'0 0.0
2017-Jun-22 04:00N 37°50' E 023°31'0 0.0
2017-Jun-22 03:30N 37°50' E 023°31'0 0.0
2017-Jun-22 03:00N 37°50' E 023°31'0 0.1
2017-Jun-22 02:30N 37°50' E 023°31'0 0.0
2017-Jun-22 02:00N 37°50' E 023°31'0 0.0
2017-Jun-22 01:30N 37°50' E 023°31'0 0.0
2017-Jun-22 01:00N 37°50' E 023°31'0 0.0
2017-Jun-22 00:30N 37°50' E 023°31'0 0.0
2017-Jun-22 00:00N 37°50' E 023°31'0 0.0
2017-Jun-21 23:30N 37°50' E 023°31'0 0.0
2017-Jun-21 23:00N 37°50' E 023°31'0 0.0
2017-Jun-21 22:30N 37°50' E 023°31'1 2.0
2017-Jun-21 22:00N 37°50' E 023°30'4 7.7
2017-Jun-21 21:31N 37°51' E 023°25'4 7.3
2017-Jun-21 21:00N 37°51' E 023°20'4 7.4
2017-Jun-21 20:30N 37°52' E 023°16'4 7.4
2017-Jun-21 19:59N 37°53' E 023°11'1 0.1
2017-Jun-21 07:33N 37°54' E 023°12'0 7.1
2017-Jun-21 07:30N 37°54' E 023°12'3 7.1
2017-Jun-21 07:00N 37°53' E 023°16'4 7.3
2017-Jun-21 06:30N 37°53' E 023°21'4 7.4
2017-Jun-21 06:00N 37°52' E 023°26'4 7.1
2017-Jun-21 05:30N 37°53' E 023°30'4 8.1
2017-Jun-21 05:00N 37°56' E 023°34'2 3.9
2017-Jun-21 04:30N 37°58' E 023°35'0 0.0
2017-Jun-21 04:00N 37°58' E 023°35'0 0.0
2017-Jun-20 07:32N 37°58' E 023°35'0 0.3
2017-Jun-20 07:30N 37°58' E 023°35'0 0.1
2017-Jun-20 07:00N 37°58' E 023°35'0 0.0
2017-Jun-20 06:30N 37°58' E 023°35'0 0.0
2017-Jun-20 06:00N 37°58' E 023°35'3 5.4
2017-Jun-20 05:30N 37°55' E 023°34'4 7.3
2017-Jun-20 05:00N 37°52' E 023°31'1 2.9
2017-Jun-20 04:30N 37°51' E 023°30'0 0.0
2017-Jun-20 03:57N 37°51' E 023°30'0 0.0
2017-Jun-20 03:24N 37°51' E 023°30'0 0.1
2017-Jun-20 03:00N 37°51' E 023°30'0 0.0
2017-Jun-20 02:30N 37°51' E 023°30'0 0.0
2017-Jun-20 02:00N 37°51' E 023°30'0 0.0
2017-Jun-20 01:30N 37°51' E 023°30'0 0.0
2017-Jun-20 01:00N 37°51' E 023°30'0 0.0
2017-Jun-20 00:30N 37°51' E 023°30'0 0.0
2017-Jun-20 00:00N 37°51' E 023°30'0 0.0
2017-Jun-19 23:30N 37°51' E 023°30'0 0.0
2017-Jun-19 23:00N 37°51' E 023°30'0 0.0
2017-Jun-19 22:30N 37°51' E 023°30'0 0.1
2017-Jun-19 21:57N 37°51' E 023°30'0 0.1
2017-Jun-19 21:30N 37°51' E 023°30'2 3.6
2017-Jun-19 20:59N 37°51' E 023°28'3 7.2
2017-Jun-19 20:30N 37°51' E 023°23'4 7.4
2017-Jun-19 20:00N 37°52' E 023°19'5 7.4
2017-Jun-19 19:23N 37°53' E 023°13'2 0.2
2017-Jun-19 10:59N 37°54' E 023°11'4 7.5
2017-Jun-19 10:30N 37°53' E 023°16'4 7.6
2017-Jun-19 10:00N 37°53' E 023°21'4 7.5
2017-Jun-19 09:30N 37°52' E 023°25'4 7.2
2017-Jun-19 09:00N 37°53' E 023°30'4 8.0
2017-Jun-19 08:30N 37°56' E 023°33'2 4.4
2017-Jun-19 08:00N 37°58' E 023°35'0 0.0
2017-Jun-18 23:54N 37°58' E 023°35'0 1.1
2017-Jun-18 23:30N 37°57' E 023°35'0 0.0
2017-Jun-18 23:00N 37°57' E 023°35'0 0.0
2017-Jun-18 22:30N 37°57' E 023°35'0 0.0
2017-Jun-18 22:00N 37°57' E 023°35'0 0.0
2017-Jun-18 21:30N 37°57' E 023°35'0 0.0
2017-Jun-18 21:00N 37°57' E 023°35'0 0.0
2017-Jun-18 20:30N 37°57' E 023°35'0 0.0
2017-Jun-18 20:00N 37°57' E 023°35'0 0.0
2017-Jun-18 19:30N 37°57' E 023°35'0 0.0
2017-Jun-18 19:00N 37°57' E 023°35'0 0.1
2017-Jun-18 18:30N 37°57' E 023°35'3 6.4
2017-Jun-18 18:00N 37°55' E 023°33'3 5.1
2017-Jun-18 17:30N 37°53' E 023°31'0 0.1
2017-Jun-18 17:00N 37°53' E 023°31'0 0.1
2017-Jun-18 16:30N 37°53' E 023°31'0 0.1
2017-Jun-18 16:00N 37°53' E 023°31'0 0.1
2017-Jun-18 15:30N 37°53' E 023°31'0 0.0
2017-Jun-18 15:00N 37°53' E 023°31'0 0.1
2017-Jun-18 14:00N 37°53' E 023°31'0 0.1
2017-Jun-18 13:30N 37°53' E 023°31'0 0.0
2017-Jun-18 13:00N 37°53' E 023°31'0 0.0
2017-Jun-18 12:30N 37°53' E 023°31'0 0.1
2017-Jun-18 12:01N 37°53' E 023°31'0 0.0
2017-Jun-18 11:30N 37°53' E 023°31'0 0.0
2017-Jun-18 11:00N 37°53' E 023°31'1 1.6
2017-Jun-18 10:30N 37°52' E 023°32'2 4.8
2017-Jun-18 10:00N 37°54' E 023°33'3 5.6
2017-Jun-18 09:30N 37°56' E 023°35'2 3.2
2017-Jun-18 09:00N 37°57' E 023°33'1 0.0
2017-Jun-17 06:12N 37°58' E 023°35'0 0.0
2017-Jun-17 06:01N 37°58' E 023°35'0 0.0
2017-Jun-17 05:31N 37°58' E 023°35'0 0.0
2017-Jun-17 05:01N 37°58' E 023°35'0 0.3
2017-Jun-17 04:30N 37°57' E 023°35'3 5.0
2017-Jun-17 04:00N 37°60' E 023°33'2 4.2
2017-Jun-17 03:31N 38°01' E 023°35'1 1.7
2017-Jun-17 03:00N 38°02' E 023°36'0 0.0
2017-Jun-17 02:30N 38°02' E 023°36'0 0.0
2017-Jun-17 02:00N 38°02' E 023°36'0 0.0
2017-Jun-17 01:30N 38°02' E 023°36'0 0.0
2017-Jun-17 01:00N 38°02' E 023°36'0 0.0
2017-Jun-17 00:30N 38°02' E 023°36'0 0.0
2017-Jun-17 00:00N 38°02' E 023°36'0 0.0
2017-Jun-16 23:30N 38°02' E 023°36'0 0.0
2017-Jun-16 23:00N 38°02' E 023°36'0 0.0
2017-Jun-16 22:30N 38°02' E 023°36'0 0.0
2017-Jun-16 22:00N 38°02' E 023°36'0 0.0
2017-Jun-16 21:30N 38°02' E 023°36'1 1.4
2017-Jun-16 21:00N 38°02' E 023°35'0 0.2
2017-Jun-16 20:28N 38°02' E 023°35'0 0.0
2017-Jun-16 20:00N 38°02' E 023°35'0 0.0
2017-Jun-16 19:31N 38°02' E 023°35'0 0.0
2017-Jun-16 19:00N 38°02' E 023°35'0 0.0
2017-Jun-16 18:30N 38°02' E 023°35'0 0.0
2017-Jun-16 18:01N 38°02' E 023°35'0 0.0
2017-Jun-16 17:30N 38°02' E 023°35'0 0.0
2017-Jun-16 17:01N 38°02' E 023°35'1 2.8
2017-Jun-16 16:30N 38°01' E 023°34'3 6.7
2017-Jun-16 16:00N 37°57' E 023°34'  

Dump ship's entire track history